Terminal Aerodrome Forecast
Issued by NWS Charleston, SC

Home | Current Version | Previous Version | Text Only | Print | Product List | Glossary On
Versions: 1 2 3 4 5 6 7 8 9 10 11 12
000
FTUS42 KCHS 201100
TAFCHS
TAF
KCHS 201136Z 2012/2112 04006KT P6SM -RA SCT030 OVC060
      TEMPO 2015/2018 5SM -RA BR SCT007 BKN025
     FM201800 02008KT P6SM -RA SCT009 BKN018 OVC060
     FM202100 01008KT 6SM BR SCT005 OVC010
     FM210600 02007KT 4SM BR BKN005 OVC010=

USA.gov is the U.S. government's official web portal to all federal, state and local government web resources and services.